Time;durP1;ratioP1;P1;durP2;ratioP2;P2;SDS_P1;SDS_P2;PMS_P1;PMS_P2;Temp;Humidity;BMP_temperature;BMP_pressure;BME280_temperature;BME280_humidity;BME280_pressure;Samples;Min_cycle;Max_cycle;Signal;HPM_P1;HPM_P2
2022/10/06 00:01:16;;;;;;;9.97;5.87;;;18.70;61.30;;;;;;5115088;27;20492;-90
2022/10/06 00:03:43;;;;;;;7.90;7.10;;;18.80;61.00;;;;;;5099433;27;21183;-90
2022/10/06 00:06:12;;;;;;;9.57;7.57;;;18.90;59.60;;;;;;5078286;27;20474;-90
2022/10/06 00:08:41;;;;;;;12.63;8.07;;;18.90;59.40;;;;;;5101040;27;20438;-89
2022/10/06 00:11:09;;;;;;;9.90;6.63;;;18.80;59.40;;;;;;5086042;28;20540;-90
2022/10/06 00:13:38;;;;;;;10.10;6.50;;;18.80;59.10;;;;;;5097407;28;20454;-90
2022/10/06 00:16:09;;;;;;;8.97;6.97;;;18.90;59.00;;;;;;5065324;28;21010;-90
2022/10/06 00:18:36;;;;;;;7.70;6.63;;;18.80;59.10;;;;;;5083979;28;20542;-91
2022/10/06 00:21:03;;;;;;;10.30;6.00;;;18.70;58.80;;;;;;5117088;28;20439;-91
2022/10/06 00:23:31;;;;;;;8.07;5.93;;;18.60;59.00;;;;;;5089277;28;20450;-91
2022/10/06 00:25:58;;;;;;;7.70;5.57;;;18.40;59.80;;;;;;5099938;28;21020;-90
2022/10/06 00:28:25;;;;;;;5.37;4.87;;;18.50;60.00;;;;;;5100017;27;20773;-90
2022/10/06 00:30:55;;;;;;;7.93;5.20;;;18.50;59.40;;;;;;5083394;28;20471;-89
2022/10/06 00:33:22;;;;;;;13.13;4.90;;;18.30;60.00;;;;;;5091901;28;20838;-88
2022/10/06 00:35:57;;;;;;;5.90;4.20;;;18.20;61.90;;;;;;5092514;28;20560;-91
2022/10/06 00:38:24;;;;;;;5.03;3.60;;;18.10;62.70;;;;;;5083119;28;20442;-90
2022/10/06 00:40:51;;;;;;;4.07;3.37;;;18.30;61.70;;;;;;5098992;28;20434;-91
2022/10/06 00:43:45;;;;;;;7.77;3.57;;;18.50;61.00;;;;;;5091799;28;20537;-90
2022/10/06 00:46:18;;;;;;;5.30;3.67;;;18.60;60.90;;;;;;5086145;28;21352;-90
2022/10/06 00:48:51;;;;;;;4.13;3.67;;;18.50;61.10;;;;;;5069286;28;20529;-91
2022/10/06 00:51:20;;;;;;;4.10;3.57;;;18.40;61.50;;;;;;5102353;28;20508;-91
2022/10/06 00:53:48;;;;;;;6.20;4.13;;;18.40;61.30;;;;;;5104125;28;20525;-90
2022/10/06 00:56:15;;;;;;;3.87;3.57;;;18.50;60.40;;;;;;5086160;28;20484;-90
2022/10/06 00:58:42;;;;;;;6.53;4.50;;;18.50;59.50;;;;;;5084069;28;20485;-91
2022/10/06 01:01:12;;;;;;;7.63;4.50;;;18.50;59.90;;;;;;5082898;28;20494;-91
2022/10/06 01:03:46;;;;;;;4.43;4.03;;;18.50;60.00;;;;;;5088203;28;20946;-90
2022/10/06 01:06:13;;;;;;;5.97;4.23;;;18.50;60.00;;;;;;5082385;28;20549;-90
2022/10/06 01:08:40;;;;;;;5.57;4.33;;;18.50;59.70;;;;;;5086335;28;21001;-91
2022/10/06 01:11:12;;;;;;;10.40;4.83;;;18.50;59.70;;;;;;5118563;28;20538;-89
2022/10/06 01:13:40;;;;;;;5.90;4.37;;;18.40;59.90;;;;;;5098921;28;20984;-91
2022/10/06 01:16:14;;;;;;;5.13;4.53;;;18.30;59.90;;;;;;5071497;28;20904;-89
2022/10/06 01:18:45;;;;;;;9.30;4.07;;;18.20;60.00;;;;;;5089292;28;20442;-90
2022/10/06 01:21:18;;;;;;;3.63;3.33;;;18.10;60.40;;;;;;5098886;28;20433;-90
2022/10/06 01:23:48;;;;;;;3.10;2.80;;;18.10;61.30;;;;;;5080010;27;20438;-92
2022/10/06 01:26:18;;;;;;;5.00;2.90;;;18.00;63.60;;;;;;5104876;27;20465;-91
2022/10/06 01:28:46;;;;;;;4.73;4.13;;;18.00;63.30;;;;;;5088628;27;20990;-91
2022/10/06 01:31:14;;;;;;;11.23;6.10;;;18.20;63.80;;;;;;5086294;27;20447;-91
2022/10/06 01:33:43;;;;;;;6.73;5.17;;;18.00;61.50;;;;;;5085414;27;20454;-91
2022/10/06 01:36:11;;;;;;;7.10;4.90;;;18.00;61.30;;;;;;5091278;27;20538;-91
2022/10/06 01:38:38;;;;;;;6.97;4.80;;;18.00;60.30;;;;;;5084782;27;20950;-90
2022/10/06 01:41:07;;;;;;;5.13;4.27;;;18.10;60.00;;;;;;5119939;27;20518;-90
2022/10/06 01:43:35;;;;;;;14.40;4.53;;;18.10;61.00;;;;;;5086067;27;20542;-89
2022/10/06 01:46:04;;;;;;;5.90;4.30;;;18.10;60.90;;;;;;5086605;27;20526;-91
2022/10/06 01:48:31;;;;;;;6.80;4.10;;;18.00;61.80;;;;;;5071547;27;20438;-91
2022/10/06 01:50:59;;;;;;;4.93;4.30;;;18.00;62.70;;;;;;5101399;27;20443;-91
2022/10/06 01:53:26;;;;;;;4.60;4.10;;;18.10;62.00;;;;;;5092943;27;20929;-91
2022/10/06 01:55:58;;;;;;;6.47;4.00;;;18.20;61.50;;;;;;5100881;27;20515;-90
2022/10/06 01:58:27;;;;;;;5.43;3.63;;;18.20;60.10;;;;;;5094791;27;20442;-90
2022/10/06 02:00:54;;;;;;;5.87;3.80;;;18.10;59.90;;;;;;5081040;28;20442;-91
2022/10/06 02:03:21;;;;;;;4.57;3.20;;;18.20;60.50;;;;;;5108758;27;20438;-90
2022/10/06 02:05:48;;;;;;;4.30;3.20;;;18.20;61.30;;;;;;5081710;27;20554;-90
2022/10/06 02:08:15;;;;;;;5.20;4.00;;;18.20;62.80;;;;;;5109500;27;20949;-91
2022/10/06 02:10:43;;;;;;;3.50;3.20;;;18.20;61.90;;;;;;5082294;27;21406;-89
2022/10/06 02:13:18;;;;;;;5.03;3.30;;;18.10;61.80;;;;;;5067954;27;20473;-91
2022/10/06 02:15:47;;;;;;;9.50;4.50;;;18.20;61.40;;;;;;5072415;27;21103;-91
2022/10/06 02:18:14;;;;;;;4.70;3.90;;;18.20;61.60;;;;;;5124291;27;20434;-91
2022/10/06 02:20:41;;;;;;;4.80;4.37;;;18.10;62.80;;;;;;5088620;27;20457;-91
2022/10/06 02:23:09;;;;;;;9.20;4.80;;;18.10;62.60;;;;;;5109316;27;20449;-90
2022/10/06 02:25:36;;;;;;;6.63;4.47;;;18.00;62.90;;;;;;5088379;27;20445;-89
2022/10/06 02:28:03;;;;;;;4.43;3.87;;;18.00;62.40;;;;;;5069806;28;20600;-91
2022/10/06 02:30:30;;;;;;;4.37;3.97;;;18.00;61.40;;;;;;5099258;27;20481;-90
2022/10/06 02:32:59;;;;;;;9.20;4.40;;;18.00;62.60;;;;;;5104856;27;20464;-91
2022/10/06 02:35:26;;;;;;;4.60;4.20;;;18.00;63.00;;;;;;5089415;27;20475;-89
2022/10/06 02:37:53;;;;;;;9.47;4.27;;;17.90;62.70;;;;;;5105667;27;20447;-91
2022/10/06 02:40:21;;;;;;;5.60;4.20;;;18.00;62.20;;;;;;5082230;27;20492;-90
2022/10/06 02:42:49;;;;;;;4.27;3.87;;;17.90;62.50;;;;;;5073888;27;20490;-91
2022/10/06 02:45:19;;;;;;;6.93;4.37;;;17.80;63.40;;;;;;5086549;27;20496;-91
2022/10/06 02:47:46;;;;;;;11.43;5.03;;;17.70;63.20;;;;;;5087743;27;20462;-92
2022/10/06 02:50:15;;;;;;;6.10;4.33;;;17.70;63.00;;;;;;5071552;27;20443;-90
2022/10/06 02:52:42;;;;;;;8.00;4.63;;;17.50;63.10;;;;;;5099134;28;20502;-91
2022/10/06 02:55:10;;;;;;;6.77;4.30;;;17.60;63.10;;;;;;5100466;27;20471;-91
2022/10/06 02:57:37;;;;;;;7.07;6.37;;;17.70;63.20;;;;;;5106447;27;20537;-90
2022/10/06 03:00:06;;;;;;;9.97;4.33;;;17.80;62.40;;;;;;5086452;27;20441;-91
2022/10/06 03:02:34;;;;;;;4.30;3.70;;;17.90;62.30;;;;;;5107356;27;20434;-90
2022/10/06 03:05:02;;;;;;;13.50;4.27;;;18.00;62.10;;;;;;5089902;27;20477;-90
2022/10/06 03:07:30;;;;;;;5.50;3.90;;;18.10;61.80;;;;;;5074448;27;21075;-90
2022/10/06 03:09:58;;;;;;;4.60;3.87;;;18.00;61.50;;;;;;5082599;27;20459;-91
2022/10/06 03:12:26;;;;;;;10.07;4.50;;;18.00;63.70;;;;;;5100807;27;20477;-90
2022/10/06 03:14:53;;;;;;;6.90;4.13;;;18.10;63.40;;;;;;5105388;27;20442;-91
2022/10/06 03:17:21;;;;;;;6.77;3.60;;;18.10;63.50;;;;;;5108003;27;20819;-91
2022/10/06 03:19:55;;;;;;;4.07;3.67;;;18.10;63.20;;;;;;5097299;27;20440;-91
2022/10/06 03:22:23;;;;;;;6.67;3.93;;;18.20;63.40;;;;;;5080351;27;20435;-91
2022/10/06 03:24:56;;;;;;;4.60;4.13;;;18.30;63.00;;;;;;5104488;27;20454;-92
2022/10/06 03:27:24;;;;;;;6.60;4.23;;;18.30;62.30;;;;;;5085339;27;21065;-90
2022/10/06 03:29:55;;;;;;;5.30;4.20;;;18.30;62.60;;;;;;5067877;28;20438;-90
2022/10/06 03:32:24;;;;;;;4.57;3.67;;;18.40;62.80;;;;;;5103078;27;20455;-90
2022/10/06 03:34:53;;;;;;;8.67;4.47;;;18.40;62.80;;;;;;5069466;27;20538;-91
2022/10/06 03:37:20;;;;;;;6.50;4.23;;;18.40;62.40;;;;;;5085079;27;20474;-91
2022/10/06 03:39:47;;;;;;;4.93;3.90;;;18.40;63.00;;;;;;5120912;27;20957;-91
2022/10/06 03:42:15;;;;;;;8.63;4.30;;;18.50;62.90;;;;;;5117323;27;21177;-91
2022/10/06 03:44:42;;;;;;;8.60;4.40;;;18.40;63.50;;;;;;5099021;27;20503;-91
2022/10/06 03:47:15;;;;;;;4.70;4.27;;;18.40;63.80;;;;;;5120063;27;20464;-92
2022/10/06 03:49:42;;;;;;;5.27;4.17;;;18.50;63.50;;;;;;5080940;27;20500;-91
2022/10/06 03:52:10;;;;;;;4.70;4.10;;;18.60;63.40;;;;;;5101301;27;20495;-90
2022/10/06 03:54:38;;;;;;;9.90;4.83;;;18.60;63.20;;;;;;5089825;27;20426;-90
2022/10/06 03:57:05;;;;;;;7.53;4.70;;;18.70;62.80;;;;;;5066831;28;21036;-91
2022/10/06 03:59:34;;;;;;;6.03;4.27;;;18.50;63.00;;;;;;5073393;27;20453;-91
2022/10/06 04:02:04;;;;;;;10.13;4.60;;;18.30;63.30;;;;;;5081730;27;20442;-90
2022/10/06 04:04:35;;;;;;;9.03;4.43;;;18.20;64.20;;;;;;5081642;27;20499;-91
2022/10/06 04:07:07;;;;;;;6.97;4.57;;;18.30;64.10;;;;;;5066606;28;20447;-89
2022/10/06 04:09:35;;;;;;;7.30;4.80;;;18.30;64.60;;;;;;5100833;27;20461;-92
2022/10/06 04:12:02;;;;;;;7.50;4.27;;;18.30;65.90;;;;;;5100656;28;20453;-91
2022/10/06 04:14:32;;;;;;;5.27;3.87;;;18.40;65.40;;;;;;5083079;27;20545;-91
2022/10/06 04:17:01;;;;;;;5.00;3.50;;;18.40;66.20;;;;;;5084577;27;20838;-92
2022/10/06 04:19:32;;;;;;;7.00;4.07;;;18.30;66.60;;;;;;5085628;28;20453;-89
2022/10/06 04:21:59;;;;;;;6.33;4.23;;;18.50;66.30;;;;;;5084490;28;20545;-91
2022/10/06 04:24:27;;;;;;;7.60;5.80;;;18.60;66.50;;;;;;5074127;28;20483;-90
2022/10/06 04:27:26;;;;;;;8.50;6.77;;;18.60;66.20;;;;;;5098447;28;20502;-91
2022/10/06 04:29:41;;;;;;;6.30;4.47;;;18.60;66.30;;;;;;5104540;27;20455;-91
2022/10/06 04:32:10;;;;;;;7.97;4.80;;;18.50;66.90;;;;;;5083182;28;20794;-91
2022/10/06 04:34:37;;;;;;;9.30;4.23;;;18.50;67.20;;;;;;5086055;28;20477;-90
2022/10/06 04:37:05;;;;;;;3.50;3.20;;;18.60;66.80;;;;;;5085543;28;20467;-91
2022/10/06 04:39:32;;;;;;;4.03;2.93;;;18.60;67.10;;;;;;5101023;28;20454;-86
2022/10/06 04:42:01;;;;;;;3.20;2.90;;;18.60;67.10;;;;;;5082187;28;20461;-86
2022/10/06 04:44:30;;;;;;;4.27;2.97;;;18.70;66.80;;;;;;5063814;28;20447;-88
2022/10/06 04:47:00;;;;;;;25.50;13.23;;;18.80;66.20;;;;;;5101360;28;20524;-88
2022/10/06 04:49:28;;;;;;;8.47;4.70;;;18.80;67.00;;;;;;5079133;28;20849;-87
2022/10/06 04:51:56;;;;;;;9.93;6.80;;;18.80;67.10;;;;;;5085118;28;20455;-87
2022/10/06 04:54:24;;;;;;;4.13;3.40;;;18.80;67.50;;;;;;5083736;28;20477;-88
2022/10/06 04:56:57;;;;;;;3.57;3.27;;;18.50;68.00;;;;;;5089197;28;21137;-89
2022/10/06 05:00:21;;;;;;;5.67;4.87;;;18.50;69.30;;;;;;5096762;27;21265;-88
2022/10/06 05:02:14;;;;;;;4.90;3.60;;;18.60;68.90;;;;;;5094562;27;20449;-87
2022/10/06 05:04:43;;;;;;;6.20;5.60;;;18.60;69.20;;;;;;5097249;27;21228;-87
2022/10/06 05:07:11;;;;;;;4.03;3.53;;;18.60;69.10;;;;;;5063087;27;20468;-87
2022/10/06 05:09:39;;;;;;;4.30;3.90;;;18.70;68.70;;;;;;5111600;27;20446;-89
2022/10/06 05:12:07;;;;;;;4.07;3.77;;;18.80;68.20;;;;;;5071747;27;20465;-88
2022/10/06 05:14:34;;;;;;;4.60;3.00;;;18.90;67.80;;;;;;5104920;27;21074;-88
2022/10/06 05:17:01;;;;;;;3.00;2.70;;;19.00;67.90;;;;;;5100591;27;20544;-87
2022/10/06 05:19:30;;;;;;;3.20;2.90;;;19.00;67.10;;;;;;5096707;27;20442;-87
2022/10/06 05:21:59;;;;;;;4.17;3.77;;;19.10;66.80;;;;;;5099791;27;20454;-87
2022/10/06 05:24:30;;;;;;;2.43;2.23;;;19.10;66.60;;;;;;5097057;27;20524;-87
2022/10/06 05:27:00;;;;;;;5.93;2.40;;;19.20;66.30;;;;;;5089104;27;20565;-88
2022/10/06 05:29:27;;;;;;;3.03;2.10;;;19.20;65.70;;;;;;5099246;27;20466;-87
2022/10/06 05:31:54;;;;;;;3.20;2.60;;;19.20;65.70;;;;;;5107429;27;20928;-88
2022/10/06 05:34:22;;;;;;;3.33;2.80;;;19.20;65.20;;;;;;5072287;27;20462;-92
2022/10/06 05:36:49;;;;;;;4.77;3.83;;;19.10;65.40;;;;;;5117499;27;20875;-87
2022/10/06 05:39:17;;;;;;;6.33;5.73;;;19.00;66.70;;;;;;5105354;27;20450;-89
2022/10/06 05:41:49;;;;;;;3.80;3.37;;;18.70;67.20;;;;;;5076610;27;20980;-89
2022/10/06 05:44:16;;;;;;;4.17;3.40;;;18.60;67.90;;;;;;5118785;27;21196;-89
2022/10/06 05:46:44;;;;;;;5.13;3.70;;;18.70;67.30;;;;;;5068866;27;20468;-89
2022/10/06 05:49:12;;;;;;;2.93;2.50;;;18.80;66.90;;;;;;5081905;27;21364;-88
2022/10/06 05:51:43;;;;;;;2.97;2.70;;;19.00;66.50;;;;;;5079004;27;20509;-90
2022/10/06 05:54:38;;;;;;;3.03;2.10;;;19.10;65.80;;;;;;5095849;27;20466;-87
2022/10/06 05:57:07;;;;;;;6.20;2.23;;;19.10;65.30;;;;;;5080188;27;20498;-85
2022/10/06 05:59:34;;;;;;;2.80;1.80;;;19.20;65.20;;;;;;5093114;27;20437;-89
2022/10/06 06:02:03;;;;;;;1.70;1.60;;;19.20;64.70;;;;;;5113277;27;20447;-86
2022/10/06 06:04:38;;;;;;;1.87;1.60;;;19.20;64.10;;;;;;5092368;27;20556;-87
2022/10/06 06:07:05;;;;;;;3.00;2.23;;;19.30;63.90;;;;;;5096098;27;20463;-90
2022/10/06 06:09:33;;;;;;;2.73;1.77;;;19.30;63.90;;;;;;5092833;28;20523;-87
2022/10/06 06:12:04;;;;;;;6.40;2.00;;;19.40;63.70;;;;;;5079040;27;20446;-87
2022/10/06 06:17:31;;;;;;;2.87;2.27;;;19.40;63.30;;;;;;5093474;27;20485;-86
2022/10/06 06:19:58;;;;;;;1.97;1.60;;;19.40;62.80;;;;;;5100676;27;20482;-89
2022/10/06 06:22:26;;;;;;;1.70;1.60;;;19.30;62.00;;;;;;5084434;27;20463;-87
2022/10/06 06:24:53;;;;;;;2.23;1.80;;;19.30;62.60;;;;;;5099931;27;20463;-87
2022/10/06 06:27:22;;;;;;;2.23;2.00;;;19.40;63.50;;;;;;5080343;27;20465;-87
2022/10/06 06:29:49;;;;;;;4.20;3.07;;;19.40;62.80;;;;;;5113339;27;20477;-88
2022/10/06 06:32:16;;;;;;;3.60;1.70;;;19.40;62.80;;;;;;5082887;27;20458;-88
2022/10/06 06:34:43;;;;;;;3.50;1.83;;;19.40;63.00;;;;;;5087864;27;20552;-89
2022/10/06 06:37:11;;;;;;;2.97;2.10;;;19.50;63.20;;;;;;5083763;27;20478;-87
2022/10/06 06:39:39;;;;;;;2.90;1.80;;;19.50;63.40;;;;;;5094286;27;20450;-88
2022/10/06 06:42:07;;;;;;;3.03;1.80;;;19.60;63.50;;;;;;5070617;27;20526;-86
2022/10/06 06:44:54;;;;;;;3.93;2.30;;;19.60;63.40;;;;;;5090940;27;20435;-86
2022/10/06 06:47:30;;;;;;;3.60;2.83;;;19.50;62.90;;;;;;5080957;27;21032;-88
2022/10/06 06:49:59;;;;;;;8.40;2.33;;;19.50;63.10;;;;;;5095156;27;20942;-89
2022/10/06 06:52:28;;;;;;;4.73;2.17;;;19.40;63.60;;;;;;5098172;27;20443;-86
2022/10/06 06:54:55;;;;;;;5.07;2.30;;;19.40;63.70;;;;;;5080557;27;20469;-87
2022/10/06 06:57:22;;;;;;;6.73;2.70;;;19.50;64.00;;;;;;5081572;27;21016;-87
2022/10/06 06:59:55;;;;;;;5.70;2.40;;;19.40;64.20;;;;;;5080815;27;20532;-87
2022/10/06 07:02:28;;;;;;;6.70;2.23;;;19.40;64.40;;;;;;5081457;27;20941;-88
2022/10/06 07:04:55;;;;;;;4.43;2.27;;;19.50;64.40;;;;;;5083916;28;20804;-90
2022/10/06 07:07:22;;;;;;;4.40;2.90;;;19.40;64.40;;;;;;5105256;27;20524;-89
2022/10/06 07:09:49;;;;;;;7.00;3.07;;;19.50;64.70;;;;;;5096785;27;20631;-90
2022/10/06 07:12:18;;;;;;;2.90;2.63;;;19.50;64.50;;;;;;5095364;27;20455;-86
2022/10/06 07:26:16;;;;;;;8.10;2.30;;;19.40;64.10;;;;;;5042762;28;20475;-89
2022/10/06 07:28:43;;;;;;;5.10;2.30;;;19.30;63.90;;;;;;5103376;27;20537;-89
2022/10/06 07:31:13;;;;;;;4.87;2.73;;;19.30;64.20;;;;;;5097289;27;20533;-87
2022/10/06 07:33:41;;;;;;;3.50;2.70;;;19.30;64.00;;;;;;5098252;27;20463;-88
2022/10/06 07:36:10;;;;;;;2.90;2.00;;;19.40;63.80;;;;;;5062952;27;20549;-87
2022/10/06 07:38:40;;;;;;;4.33;2.20;;;19.40;63.60;;;;;;5088847;27;20459;-86
2022/10/06 07:41:07;;;;;;;1.90;1.80;;;19.50;63.30;;;;;;5097030;27;20449;-87
2022/10/06 07:43:34;;;;;;;2.50;1.97;;;19.60;63.10;;;;;;5104145;27;20466;-86
2022/10/06 07:46:02;;;;;;;4.40;4.10;;;19.60;62.60;;;;;;5103938;27;20524;-86
2022/10/06 07:48:33;;;;;;;3.60;2.70;;;19.60;62.60;;;;;;5102824;27;20449;-88
2022/10/06 07:51:05;;;;;;;3.30;3.00;;;19.60;62.20;;;;;;5100323;28;20486;-86
2022/10/06 07:53:37;;;;;;;8.07;3.10;;;19.50;61.80;;;;;;5103956;27;20969;-87
2022/10/06 07:56:23;;;;;;;7.20;4.20;;;19.30;62.60;;;;;;5082812;27;20494;-88
2022/10/06 07:58:54;;;;;;;9.07;2.50;;;19.00;60.70;;;;;;5096537;28;20479;-88
2022/10/06 08:01:24;;;;;;;2.60;2.10;;;18.80;58.90;;;;;;5068310;27;20807;-92
2022/10/06 08:03:51;;;;;;;4.83;3.13;;;18.60;58.00;;;;;;5082520;28;20995;-87
2022/10/06 08:06:22;;;;;;;1.70;1.60;;;18.50;59.00;;;;;;5114062;27;20516;-86
2022/10/06 08:08:51;;;;;;;2.67;2.20;;;18.40;59.00;;;;;;5115859;27;20442;-87
2022/10/06 08:11:19;;;;;;;7.20;6.13;;;18.40;58.70;;;;;;5077065;28;20451;-88
2022/10/06 08:13:47;;;;;;;7.83;3.60;;;18.50;58.20;;;;;;5112056;27;20451;-86
2022/10/06 08:16:16;;;;;;;3.03;2.50;;;18.50;58.20;;;;;;5116334;27;20476;-87
2022/10/06 08:18:44;;;;;;;4.10;1.77;;;18.40;57.70;;;;;;5114010;27;20469;-90
2022/10/06 08:21:13;;;;;;;2.87;1.60;;;18.40;57.80;;;;;;5100663;27;20550;-86
2022/10/06 08:23:43;;;;;;;2.93;1.43;;;18.60;58.50;;;;;;5113508;27;20454;-86
2022/10/06 08:26:11;;;;;;;6.70;3.07;;;18.60;57.50;;;;;;5110742;28;20509;-85
2022/10/06 08:28:38;;;;;;;3.00;1.30;;;18.50;57.40;;;;;;5094766;27;20446;-88
2022/10/06 08:31:10;;;;;;;2.33;1.40;;;18.70;58.00;;;;;;5093647;28;21175;-86
2022/10/06 08:33:37;;;;;;;2.90;1.03;;;18.60;57.10;;;;;;5095580;27;21027;-87
2022/10/06 08:36:07;;;;;;;1.70;1.20;;;18.50;53.80;;;;;;5117946;27;20485;-89
2022/10/06 08:38:35;;;;;;;3.80;1.70;;;18.80;53.20;;;;;;5071180;27;20537;-88
2022/10/06 08:41:15;;;;;;;5.63;2.73;;;19.00;54.50;;;;;;5106868;27;20528;-88
2022/10/06 08:43:44;;;;;;;6.67;2.93;;;19.10;54.40;;;;;;5113599;27;20468;-86
2022/10/06 08:46:13;;;;;;;5.83;2.67;;;19.00;54.40;;;;;;5119056;27;20552;-86
2022/10/06 08:48:40;;;;;;;6.13;3.17;;;19.10;54.20;;;;;;5116159;27;20453;-89
2022/10/06 08:51:22;;;;;;;5.93;2.83;;;19.10;53.80;;;;;;5089769;27;21077;-86
2022/10/06 08:53:58;;;;;;;6.17;4.57;;;19.20;54.00;;;;;;5073272;27;20530;-87
2022/10/06 08:56:32;;;;;;;8.20;4.03;;;19.10;52.20;;;;;;5114913;27;20465;-87
2022/10/06 08:59:03;;;;;;;4.30;1.97;;;19.10;52.60;;;;;;5063436;27;20546;-88
2022/10/06 09:01:37;;;;;;;7.67;2.07;;;19.20;52.60;;;;;;5115633;27;20451;-87
2022/10/06 09:04:06;;;;;;;7.07;3.20;;;19.20;52.40;;;;;;5070767;27;20441;-87
2022/10/06 09:06:45;;;;;;;3.17;1.73;;;19.40;51.70;;;;;;5099119;27;20474;-89
2022/10/06 09:09:25;;;;;;;5.60;1.90;;;19.40;51.70;;;;;;5083006;27;20854;-87
2022/10/06 09:12:05;;;;;;;5.73;4.40;;;19.30;52.30;;;;;;5116522;27;20443;-86
2022/10/06 09:14:37;;;;;;;4.83;2.10;;;19.50;52.60;;;;;;5117252;27;20467;-85
2022/10/06 09:17:10;;;;;;;3.67;2.30;;;19.50;51.30;;;;;;5116444;27;20463;-86
2022/10/06 09:19:42;;;;;;;6.90;2.23;;;19.40;51.60;;;;;;5094671;27;20478;-87
2022/10/06 09:22:18;;;;;;;8.37;2.03;;;19.30;51.00;;;;;;5117674;27;20990;-88
2022/10/06 09:24:49;;;;;;;3.47;2.00;;;19.20;47.80;;;;;;5100780;27;20441;-87
2022/10/06 09:27:23;;;;;;;4.30;1.50;;;19.20;49.00;;;;;;5113737;27;20460;-87
2022/10/06 09:29:51;;;;;;;2.63;1.57;;;19.30;47.40;;;;;;5112646;27;20870;-88
2022/10/06 09:32:20;;;;;;;7.40;1.30;;;19.30;47.80;;;;;;5098182;27;20501;-89
2022/10/06 09:34:51;;;;;;;4.40;1.80;;;19.40;47.10;;;;;;5115640;27;20466;-86
2022/10/06 09:37:18;;;;;;;2.10;1.20;;;19.40;48.00;;;;;;5081566;27;20580;-88
2022/10/06 09:39:48;;;;;;;2.73;1.03;;;19.40;48.60;;;;;;5101229;27;20454;-87
2022/10/06 09:42:19;;;;;;;5.30;1.20;;;19.60;47.10;;;;;;5113133;27;20466;-88
2022/10/06 09:44:57;;;;;;;3.50;1.53;;;19.70;47.20;;;;;;5113319;27;20451;-87
2022/10/06 09:47:34;;;;;;;3.53;1.70;;;19.70;46.60;;;;;;5114726;27;20469;-87
2022/10/06 09:50:15;;;;;;;4.13;1.50;;;19.70;47.90;;;;;;5115946;27;20934;-87
2022/10/06 09:52:43;;;;;;;4.50;3.00;;;19.80;47.80;;;;;;5099186;27;20530;-86
2022/10/06 09:55:12;;;;;;;3.73;3.20;;;19.90;46.50;;;;;;5115780;27;20470;-88
2022/10/06 09:57:48;;;;;;;6.43;4.40;;;20.00;47.50;;;;;;5117006;27;20533;-88
2022/10/06 10:00:30;;;;;;;5.43;3.73;;;20.20;46.70;;;;;;5078398;27;20434;-89
2022/10/06 10:02:59;;;;;;;10.03;1.40;;;20.20;45.30;;;;;;5101145;27;21191;-87
2022/10/06 10:05:28;;;;;;;4.87;2.00;;;20.10;45.20;;;;;;5083301;27;20451;-89
2022/10/06 10:08:03;;;;;;;6.20;1.30;;;20.10;46.60;;;;;;5067455;28;20496;-87
2022/10/06 10:10:30;;;;;;;6.57;1.10;;;20.10;44.20;;;;;;5117162;27;20454;-88
2022/10/06 10:12:59;;;;;;;2.63;0.97;;;19.90;44.20;;;;;;5070274;27;20499;-87
2022/10/06 10:15:33;;;;;;;3.20;1.50;;;20.10;44.60;;;;;;5083763;27;20601;-88
2022/10/06 10:18:03;;;;;;;3.70;1.10;;;20.30;44.20;;;;;;5099239;27;21200;-89
2022/10/06 10:20:37;;;;;;;3.77;1.33;;;20.60;44.80;;;;;;5119409;27;20995;-88
2022/10/06 10:23:17;;;;;;;6.67;1.70;;;20.70;44.10;;;;;;5098578;27;20485;-87
2022/10/06 10:25:57;;;;;;;8.77;1.77;;;20.70;43.90;;;;;;5066679;27;20441;-87
2022/10/06 10:28:45;;;;;;;2.00;1.10;;;20.60;41.90;;;;;;5081361;28;20467;-89
2022/10/06 10:31:21;;;;;;;4.47;1.40;;;20.60;43.20;;;;;;5088979;27;20554;-87
2022/10/06 10:33:59;;;;;;;4.50;1.77;;;20.60;42.10;;;;;;5084886;27;20483;-88
2022/10/06 10:36:35;;;;;;;4.97;1.33;;;20.70;43.20;;;;;;5121633;27;20485;-88
2022/10/06 10:39:05;;;;;;;4.00;1.60;;;20.80;41.90;;;;;;5116785;27;20473;-87
2022/10/06 10:41:41;;;;;;;5.43;1.53;;;20.80;42.90;;;;;;5118773;27;20459;-87
2022/10/06 10:44:11;;;;;;;2.10;1.47;;;20.90;42.40;;;;;;5088489;27;21290;-89
2022/10/06 10:46:44;;;;;;;2.17;1.30;;;20.90;43.20;;;;;;5118594;27;20453;-87
2022/10/06 10:49:18;;;;;;;3.10;1.10;;;20.90;43.20;;;;;;5110123;27;20438;-87
2022/10/06 10:51:50;;;;;;;3.73;1.00;;;21.20;43.90;;;;;;5121180;27;20494;-87
2022/10/06 10:54:20;;;;;;;5.70;1.23;;;21.30;42.10;;;;;;5100897;27;20570;-87
2022/10/06 10:56:51;;;;;;;7.73;2.00;;;21.50;42.40;;;;;;5114493;27;20549;-88
2022/10/06 10:59:24;;;;;;;3.53;1.67;;;21.80;42.40;;;;;;5108011;27;20451;-87
2022/10/06 11:01:58;;;;;;;3.13;1.70;;;21.90;42.10;;;;;;5115994;27;20467;-87
2022/10/06 11:04:26;;;;;;;3.73;2.60;;;22.00;42.40;;;;;;5090808;27;20435;-89
2022/10/06 11:07:09;;;;;;;4.33;1.67;;;22.30;41.60;;;;;;5097872;28;20914;-87
2022/10/06 11:09:46;;;;;;;7.07;1.27;;;22.40;41.50;;;;;;5122918;27;20823;-87
2022/10/06 11:12:22;;;;;;;3.57;1.30;;;22.50;41.40;;;;;;5117650;27;20434;-87
2022/10/06 11:14:56;;;;;;;2.70;1.27;;;22.60;41.30;;;;;;5112961;27;20607;-87
2022/10/06 11:17:38;;;;;;;2.70;1.30;;;22.70;41.30;;;;;;5099902;27;20543;-87
2022/10/06 11:20:21;;;;;;;4.87;1.53;;;22.70;39.90;;;;;;5117030;27;20446;-87
2022/10/06 11:22:56;;;;;;;3.17;1.00;;;22.40;41.00;;;;;;5113046;27;20450;-89
2022/10/06 11:25:32;;;;;;;6.63;1.00;;;22.60;40.80;;;;;;5114454;27;20800;-86
2022/10/06 11:28:04;;;;;;;2.67;0.87;;;22.50;40.00;;;;;;5113996;27;20434;-87
2022/10/06 11:30:39;;;;;;;2.40;1.37;;;22.30;39.60;;;;;;5112588;27;20487;-87
2022/10/06 11:33:15;;;;;;;1.83;1.10;;;22.70;40.20;;;;;;5113597;27;20446;-86
2022/10/06 11:35:44;;;;;;;1.93;1.00;;;23.10;40.50;;;;;;5113836;27;20514;-87
2022/10/06 11:38:19;;;;;;;3.50;1.20;;;23.30;38.60;;;;;;5115111;27;20952;-87
2022/10/06 11:40:51;;;;;;;4.40;1.20;;;23.30;39.80;;;;;;5113079;27;20454;-91
2022/10/06 11:43:27;;;;;;;3.00;1.07;;;23.40;39.10;;;;;;5114816;27;20458;-87
2022/10/06 11:46:01;;;;;;;2.93;1.20;;;23.60;38.50;;;;;;5114376;27;20498;-87
2022/10/06 11:48:31;;;;;;;2.10;1.00;;;23.60;37.80;;;;;;5111905;27;20502;-87
2022/10/06 11:51:28;;;;;;;3.73;1.10;;;23.60;38.00;;;;;;5110847;27;20802;-86
2022/10/06 11:53:55;;;;;;;3.87;1.27;;;23.90;37.60;;;;;;5110651;27;20461;-86
2022/10/06 11:56:43;;;;;;;5.27;1.20;;;24.20;37.90;;;;;;5111605;27;20485;-87
2022/10/06 11:59:13;;;;;;;1.73;1.00;;;24.20;37.30;;;;;;5109685;27;20742;-88
2022/10/06 12:02:00;;;;;;;4.23;0.97;;;24.20;37.00;;;;;;5110609;27;20541;-91
2022/10/06 12:04:29;;;;;;;1.97;0.90;;;24.10;37.30;;;;;;5109271;27;20559;-88
2022/10/06 12:07:03;;;;;;;3.67;1.20;;;24.20;37.30;;;;;;5107580;27;20470;-86
2022/10/06 12:09:48;;;;;;;6.20;0.80;;;24.10;37.20;;;;;;5111949;27;20452;-89
2022/10/06 12:12:58;;;;;;;1.47;1.13;;;24.00;35.40;;;;;;5109772;27;20545;-86
2022/10/06 12:15:47;;;;;;;2.00;1.10;;;23.80;34.80;;;;;;5091219;27;20585;-86
2022/10/06 12:18:30;;;;;;;1.63;0.90;;;23.70;35.20;;;;;;5090905;28;21156;-87
2022/10/06 12:21:13;;;;;;;1.17;1.07;;;23.60;35.20;;;;;;5110603;27;20984;-88
2022/10/06 12:23:51;;;;;;;10.17;1.10;;;23.70;35.80;;;;;;5081763;28;20468;-88
2022/10/06 12:26:37;;;;;;;3.00;1.10;;;23.90;35.90;;;;;;5109367;27;21143;-89
2022/10/06 12:29:24;;;;;;;1.40;0.90;;;24.00;35.80;;;;;;5108941;28;20935;-86
2022/10/06 12:32:00;;;;;;;1.70;1.00;;;24.00;36.20;;;;;;5108461;28;20846;-87
2022/10/06 12:34:50;;;;;;;2.60;1.10;;;24.30;37.60;;;;;;5110188;28;20452;-88
2022/10/06 12:37:43;;;;;;;3.80;1.27;;;24.50;36.40;;;;;;5112671;28;21190;-87
2022/10/06 12:40:48;;;;;;;2.40;1.20;;;24.60;35.10;;;;;;5113104;28;20532;-88
2022/10/06 12:43:48;;;;;;;4.60;1.20;;;24.80;35.10;;;;;;5108073;28;21230;-91
2022/10/06 12:46:24;;;;;;;6.17;2.03;;;24.50;35.20;;;;;;5111211;28;20470;-87
2022/10/06 12:49:14;;;;;;;2.17;1.00;;;24.30;36.20;;;;;;5111439;28;20529;-88
2022/10/06 12:51:42;;;;;;;1.27;1.00;;;24.30;36.40;;;;;;5114783;28;20523;-86
2022/10/06 12:54:18;;;;;;;4.37;1.37;;;24.30;37.10;;;;;;5111484;27;20533;-89
2022/10/06 12:56:57;;;;;;;2.77;1.10;;;24.40;36.50;;;;;;5111832;28;20476;-87
2022/10/06 12:59:26;;;;;;;1.17;1.00;;;24.50;36.90;;;;;;5112689;28;20438;-87
2022/10/06 13:01:56;;;;;;;1.93;1.10;;;24.50;35.80;;;;;;5109105;28;20487;-87
2022/10/06 13:04:39;;;;;;;5.30;2.20;;;24.40;36.00;;;;;;5112328;28;20450;-88
2022/10/06 13:07:15;;;;;;;1.93;1.20;;;24.50;35.70;;;;;;5110474;28;20463;-92
2022/10/06 13:09:45;;;;;;;2.53;0.90;;;24.60;34.90;;;;;;5110874;28;20442;-90
2022/10/06 13:12:27;;;;;;;2.60;1.20;;;24.70;34.60;;;;;;5109201;28;20442;-87
2022/10/06 13:15:14;;;;;;;2.20;0.87;;;24.40;34.60;;;;;;5110139;28;20475;-90
2022/10/06 13:17:44;;;;;;;4.40;2.40;;;24.50;35.80;;;;;;5110279;28;20465;-88
2022/10/06 13:20:31;;;;;;;1.67;1.10;;;24.70;35.20;;;;;;5111716;27;20446;-87
2022/10/06 13:23:00;;;;;;;5.53;1.10;;;24.80;34.70;;;;;;5118547;27;21063;-86